sensor_id;sensor_type;location;lat;lon;timestamp;P1;durP1;ratioP1;P2;durP2;ratioP2
63818;SDS011;49970;54.976;73.248;2023-08-20T00:01:23;9.90;;;5.93;;
63818;SDS011;49970;54.976;73.248;2023-08-20T00:03:51;9.70;;;5.60;;
63818;SDS011;49970;54.976;73.248;2023-08-20T00:06:19;17.17;;;5.75;;
63818;SDS011;49970;54.976;73.248;2023-08-20T00:08:46;10.60;;;6.43;;
63818;SDS011;49970;54.976;73.248;2023-08-20T00:11:13;10.63;;;6.50;;
63818;SDS011;49970;54.976;73.248;2023-08-20T00:13:40;24.95;;;9.10;;
63818;SDS011;49970;54.976;73.248;2023-08-20T00:16:06;17.65;;;8.95;;
63818;SDS011;49970;54.976;73.248;2023-08-20T00:18:33;26.27;;;8.05;;
63818;SDS011;49970;54.976;73.248;2023-08-20T00:20:59;21.48;;;6.70;;
63818;SDS011;49970;54.976;73.248;2023-08-20T00:23:26;14.35;;;6.63;;
63818;SDS011;49970;54.976;73.248;2023-08-20T00:25:52;11.20;;;5.35;;
63818;SDS011;49970;54.976;73.248;2023-08-20T00:28:20;14.38;;;5.18;;
63818;SDS011;49970;54.976;73.248;2023-08-20T00:30:46;8.18;;;5.28;;
63818;SDS011;49970;54.976;73.248;2023-08-20T00:33:12;10.77;;;4.20;;
63818;SDS011;49970;54.976;73.248;2023-08-20T00:35:41;9.00;;;4.32;;
63818;SDS011;49970;54.976;73.248;2023-08-20T00:38:08;15.85;;;5.00;;
63818;SDS011;49970;54.976;73.248;2023-08-20T00:40:34;24.48;;;6.28;;
63818;SDS011;49970;54.976;73.248;2023-08-20T00:43:00;39.80;;;8.95;;
63818;SDS011;49970;54.976;73.248;2023-08-20T00:45:27;36.15;;;10.05;;
63818;SDS011;49970;54.976;73.248;2023-08-20T00:47:53;60.70;;;12.00;;
63818;SDS011;49970;54.976;73.248;2023-08-20T00:50:19;39.15;;;9.93;;
63818;SDS011;49970;54.976;73.248;2023-08-20T00:52:46;34.45;;;8.63;;
63818;SDS011;49970;54.976;73.248;2023-08-20T00:55:12;31.20;;;8.40;;
63818;SDS011;49970;54.976;73.248;2023-08-20T00:57:39;31.50;;;8.18;;
63818;SDS011;49970;54.976;73.248;2023-08-20T01:00:07;28.00;;;7.95;;
63818;SDS011;49970;54.976;73.248;2023-08-20T01:02:36;26.02;;;8.70;;
63818;SDS011;49970;54.976;73.248;2023-08-20T01:05:05;27.48;;;7.38;;
63818;SDS011;49970;54.976;73.248;2023-08-20T01:07:43;23.00;;;7.10;;
63818;SDS011;49970;54.976;73.248;2023-08-20T01:10:29;14.23;;;6.38;;
63818;SDS011;49970;54.976;73.248;2023-08-20T01:13:05;19.85;;;6.65;;
63818;SDS011;49970;54.976;73.248;2023-08-20T01:15:33;15.25;;;5.60;;
63818;SDS011;49970;54.976;73.248;2023-08-20T01:17:59;14.00;;;5.93;;
63818;SDS011;49970;54.976;73.248;2023-08-20T01:20:27;16.80;;;5.03;;
63818;SDS011;49970;54.976;73.248;2023-08-20T01:23:13;12.80;;;5.55;;
63818;SDS011;49970;54.976;73.248;2023-08-20T01:28:29;12.48;;;5.75;;
63818;SDS011;49970;54.976;73.248;2023-08-20T01:30:57;15.40;;;5.63;;
63818;SDS011;49970;54.976;73.248;2023-08-20T01:33:26;21.77;;;6.18;;
63818;SDS011;49970;54.976;73.248;2023-08-20T01:35:52;22.55;;;6.03;;
63818;SDS011;49970;54.976;73.248;2023-08-20T01:38:20;24.15;;;6.40;;
63818;SDS011;49970;54.976;73.248;2023-08-20T01:40:47;13.50;;;5.20;;
63818;SDS011;49970;54.976;73.248;2023-08-20T01:43:14;11.23;;;4.88;;
63818;SDS011;49970;54.976;73.248;2023-08-20T01:45:41;12.30;;;4.65;;
63818;SDS011;49970;54.976;73.248;2023-08-20T01:48:07;18.70;;;5.68;;
63818;SDS011;49970;54.976;73.248;2023-08-20T01:50:34;24.35;;;5.78;;
63818;SDS011;49970;54.976;73.248;2023-08-20T01:53:01;9.88;;;5.07;;
63818;SDS011;49970;54.976;73.248;2023-08-20T01:55:30;32.55;;;6.93;;
63818;SDS011;49970;54.976;73.248;2023-08-20T01:57:58;23.00;;;6.30;;
63818;SDS011;49970;54.976;73.248;2023-08-20T02:00:25;18.95;;;6.18;;
63818;SDS011;49970;54.976;73.248;2023-08-20T02:02:51;17.63;;;6.93;;
63818;SDS011;49970;54.976;73.248;2023-08-20T02:05:18;24.83;;;7.25;;
63818;SDS011;49970;54.976;73.248;2023-08-20T02:07:44;37.42;;;8.00;;
63818;SDS011;49970;54.976;73.248;2023-08-20T02:10:12;19.38;;;6.95;;
63818;SDS011;49970;54.976;73.248;2023-08-20T02:12:38;24.23;;;7.03;;
63818;SDS011;49970;54.976;73.248;2023-08-20T02:15:05;36.42;;;8.35;;
63818;SDS011;49970;54.976;73.248;2023-08-20T02:17:34;21.77;;;7.78;;
63818;SDS011;49970;54.976;73.248;2023-08-20T02:20:02;7.55;;;5.53;;
63818;SDS011;49970;54.976;73.248;2023-08-20T02:22:29;11.15;;;5.45;;
63818;SDS011;49970;54.976;73.248;2023-08-20T02:24:56;7.43;;;5.18;;
63818;SDS011;49970;54.976;73.248;2023-08-20T02:27:22;9.88;;;5.43;;
63818;SDS011;49970;54.976;73.248;2023-08-20T02:29:48;29.10;;;8.32;;
63818;SDS011;49970;54.976;73.248;2023-08-20T02:32:14;80.53;;;13.27;;
63818;SDS011;49970;54.976;73.248;2023-08-20T02:34:41;64.97;;;14.23;;
63818;SDS011;49970;54.976;73.248;2023-08-20T02:37:07;30.83;;;8.57;;
63818;SDS011;49970;54.976;73.248;2023-08-20T02:39:33;16.45;;;5.82;;
63818;SDS011;49970;54.976;73.248;2023-08-20T02:42:01;26.75;;;5.45;;
63818;SDS011;49970;54.976;73.248;2023-08-20T02:45:30;14.15;;;5.05;;
63818;SDS011;49970;54.976;73.248;2023-08-20T02:47:57;22.67;;;8.57;;
63818;SDS011;49970;54.976;73.248;2023-08-20T02:50:24;43.92;;;10.15;;
63818;SDS011;49970;54.976;73.248;2023-08-20T02:52:51;92.25;;;17.00;;
63818;SDS011;49970;54.976;73.248;2023-08-20T02:55:17;60.30;;;13.55;;
63818;SDS011;49970;54.976;73.248;2023-08-20T02:57:43;45.70;;;9.35;;
63818;SDS011;49970;54.976;73.248;2023-08-20T03:00:10;30.17;;;7.47;;
63818;SDS011;49970;54.976;73.248;2023-08-20T03:02:37;10.70;;;4.50;;
63818;SDS011;49970;54.976;73.248;2023-08-20T03:05:05;10.50;;;4.15;;
63818;SDS011;49970;54.976;73.248;2023-08-20T03:07:32;41.45;;;5.82;;
63818;SDS011;49970;54.976;73.248;2023-08-20T03:09:58;15.48;;;5.78;;
63818;SDS011;49970;54.976;73.248;2023-08-20T03:12:24;14.13;;;5.57;;
63818;SDS011;49970;54.976;73.248;2023-08-20T03:14:50;74.25;;;10.85;;
63818;SDS011;49970;54.976;73.248;2023-08-20T03:17:17;115.60;;;16.80;;
63818;SDS011;49970;54.976;73.248;2023-08-20T03:19:56;161.57;;;19.30;;
63818;SDS011;49970;54.976;73.248;2023-08-20T03:22:24;117.88;;;15.40;;
63818;SDS011;49970;54.976;73.248;2023-08-20T03:24:51;21.75;;;5.65;;
63818;SDS011;49970;54.976;73.248;2023-08-20T03:27:19;8.50;;;3.90;;
63818;SDS011;49970;54.976;73.248;2023-08-20T03:29:46;4.63;;;3.42;;
63818;SDS011;49970;54.976;73.248;2023-08-20T03:32:12;6.07;;;3.50;;
63818;SDS011;49970;54.976;73.248;2023-08-20T03:34:39;18.45;;;3.83;;
63818;SDS011;49970;54.976;73.248;2023-08-20T03:37:05;41.75;;;5.90;;
63818;SDS011;49970;54.976;73.248;2023-08-20T03:40:57;24.23;;;4.18;;
63818;SDS011;49970;54.976;73.248;2023-08-20T03:43:25;15.68;;;4.38;;
63818;SDS011;49970;54.976;73.248;2023-08-20T03:47:16;22.63;;;4.65;;
63818;SDS011;49970;54.976;73.248;2023-08-20T03:49:46;28.05;;;5.13;;
63818;SDS011;49970;54.976;73.248;2023-08-20T03:52:13;70.82;;;11.07;;
63818;SDS011;49970;54.976;73.248;2023-08-20T03:54:41;58.95;;;9.10;;
63818;SDS011;49970;54.976;73.248;2023-08-20T03:57:08;67.72;;;9.07;;
63818;SDS011;49970;54.976;73.248;2023-08-20T03:59:34;7.85;;;3.50;;
63818;SDS011;49970;54.976;73.248;2023-08-20T04:02:00;12.00;;;3.03;;
63818;SDS011;49970;54.976;73.248;2023-08-20T04:04:26;13.15;;;3.15;;
63818;SDS011;49970;54.976;73.248;2023-08-20T04:06:54;12.13;;;2.92;;
63818;SDS011;49970;54.976;73.248;2023-08-20T04:09:20;6.28;;;2.78;;
63818;SDS011;49970;54.976;73.248;2023-08-20T04:11:47;15.68;;;2.67;;
63818;SDS011;49970;54.976;73.248;2023-08-20T04:14:13;3.05;;;2.45;;
63818;SDS011;49970;54.976;73.248;2023-08-20T04:16:39;4.10;;;2.65;;
63818;SDS011;49970;54.976;73.248;2023-08-20T04:19:05;8.63;;;2.50;;
63818;SDS011;49970;54.976;73.248;2023-08-20T04:21:32;2.50;;;2.30;;
63818;SDS011;49970;54.976;73.248;2023-08-20T04:23:58;4.00;;;2.45;;
63818;SDS011;49970;54.976;73.248;2023-08-20T04:26:24;3.40;;;2.90;;
63818;SDS011;49970;54.976;73.248;2023-08-20T04:28:51;7.65;;;2.35;;
63818;SDS011;49970;54.976;73.248;2023-08-20T04:31:17;8.85;;;2.22;;
63818;SDS011;49970;54.976;73.248;2023-08-20T04:34:09;11.48;;;2.60;;
63818;SDS011;49970;54.976;73.248;2023-08-20T04:36:46;7.70;;;2.67;;
63818;SDS011;49970;54.976;73.248;2023-08-20T04:39:12;7.20;;;2.33;;
63818;SDS011;49970;54.976;73.248;2023-08-20T04:41:43;14.57;;;2.47;;
63818;SDS011;49970;54.976;73.248;2023-08-20T04:44:14;10.50;;;2.33;;
63818;SDS011;49970;54.976;73.248;2023-08-20T04:46:42;11.73;;;2.08;;
63818;SDS011;49970;54.976;73.248;2023-08-20T04:49:09;9.65;;;1.80;;
63818;SDS011;49970;54.976;73.248;2023-08-20T04:51:38;6.00;;;1.83;;
63818;SDS011;49970;54.976;73.248;2023-08-20T04:54:04;12.50;;;1.80;;
63818;SDS011;49970;54.976;73.248;2023-08-20T04:56:30;3.65;;;2.05;;
63818;SDS011;49970;54.976;73.248;2023-08-20T04:58:57;2.45;;;1.75;;
63818;SDS011;49970;54.976;73.248;2023-08-20T05:01:41;20.27;;;2.40;;
63818;SDS011;49970;54.976;73.248;2023-08-20T05:05:36;5.57;;;2.28;;
63818;SDS011;49970;54.976;73.248;2023-08-20T05:09:09;2.28;;;1.92;;
63818;SDS011;49970;54.976;73.248;2023-08-20T05:11:35;4.82;;;2.58;;
63818;SDS011;49970;54.976;73.248;2023-08-20T05:14:02;22.42;;;2.70;;
63818;SDS011;49970;54.976;73.248;2023-08-20T05:16:29;16.48;;;2.40;;
63818;SDS011;49970;54.976;73.248;2023-08-20T05:18:56;3.38;;;2.25;;
63818;SDS011;49970;54.976;73.248;2023-08-20T05:21:22;7.28;;;2.20;;
63818;SDS011;49970;54.976;73.248;2023-08-20T05:23:49;13.38;;;2.15;;
63818;SDS011;49970;54.976;73.248;2023-08-20T05:26:15;7.72;;;2.25;;
63818;SDS011;49970;54.976;73.248;2023-08-20T05:28:42;4.13;;;2.20;;
63818;SDS011;49970;54.976;73.248;2023-08-20T05:31:09;2.85;;;2.65;;
63818;SDS011;49970;54.976;73.248;2023-08-20T05:34:22;2.65;;;2.30;;
63818;SDS011;49970;54.976;73.248;2023-08-20T05:36:59;4.45;;;2.33;;
63818;SDS011;49970;54.976;73.248;2023-08-20T05:39:26;2.30;;;2.10;;
63818;SDS011;49970;54.976;73.248;2023-08-20T05:41:53;15.15;;;1.73;;
63818;SDS011;49970;54.976;73.248;2023-08-20T05:44:21;3.13;;;1.65;;
63818;SDS011;49970;54.976;73.248;2023-08-20T05:46:49;6.60;;;2.97;;
63818;SDS011;49970;54.976;73.248;2023-08-20T05:49:15;7.68;;;2.47;;
63818;SDS011;49970;54.976;73.248;2023-08-20T05:51:42;7.00;;;1.88;;
63818;SDS011;49970;54.976;73.248;2023-08-20T05:54:10;6.82;;;1.77;;
63818;SDS011;49970;54.976;73.248;2023-08-20T05:56:37;11.90;;;2.35;;
63818;SDS011;49970;54.976;73.248;2023-08-20T05:59:04;5.53;;;1.92;;
63818;SDS011;49970;54.976;73.248;2023-08-20T06:01:31;4.15;;;2.20;;
63818;SDS011;49970;54.976;73.248;2023-08-20T06:03:58;7.53;;;2.15;;
63818;SDS011;49970;54.976;73.248;2023-08-20T06:06:25;2.28;;;2.03;;
63818;SDS011;49970;54.976;73.248;2023-08-20T06:08:52;22.67;;;4.18;;
63818;SDS011;49970;54.976;73.248;2023-08-20T06:11:19;15.27;;;4.03;;
63818;SDS011;49970;54.976;73.248;2023-08-20T06:13:45;11.95;;;2.95;;
63818;SDS011;49970;54.976;73.248;2023-08-20T06:16:12;8.23;;;2.17;;
63818;SDS011;49970;54.976;73.248;2023-08-20T06:18:40;2.22;;;2.00;;
63818;SDS011;49970;54.976;73.248;2023-08-20T06:21:06;2.40;;;2.00;;
63818;SDS011;49970;54.976;73.248;2023-08-20T06:23:32;12.45;;;1.80;;
63818;SDS011;49970;54.976;73.248;2023-08-20T06:25:58;6.28;;;2.42;;
63818;SDS011;49970;54.976;73.248;2023-08-20T06:28:25;5.57;;;1.77;;
63818;SDS011;49970;54.976;73.248;2023-08-20T06:30:51;3.65;;;1.95;;
63818;SDS011;49970;54.976;73.248;2023-08-20T06:33:17;9.10;;;1.88;;
63818;SDS011;49970;54.976;73.248;2023-08-20T06:35:43;11.95;;;2.17;;
63818;SDS011;49970;54.976;73.248;2023-08-20T06:38:09;26.25;;;3.00;;
63818;SDS011;49970;54.976;73.248;2023-08-20T06:40:35;25.60;;;3.15;;
63818;SDS011;49970;54.976;73.248;2023-08-20T06:43:02;17.27;;;2.58;;
63818;SDS011;49970;54.976;73.248;2023-08-20T06:45:29;9.60;;;1.83;;
63818;SDS011;49970;54.976;73.248;2023-08-20T06:47:55;14.10;;;2.00;;
63818;SDS011;49970;54.976;73.248;2023-08-20T06:50:23;6.53;;;2.13;;
63818;SDS011;49970;54.976;73.248;2023-08-20T06:52:49;2.80;;;2.10;;
63818;SDS011;49970;54.976;73.248;2023-08-20T06:55:15;3.75;;;1.95;;
63818;SDS011;49970;54.976;73.248;2023-08-20T06:57:41;11.25;;;2.42;;
63818;SDS011;49970;54.976;73.248;2023-08-20T07:00:08;2.38;;;2.17;;
63818;SDS011;49970;54.976;73.248;2023-08-20T07:02:36;2.15;;;1.83;;
63818;SDS011;49970;54.976;73.248;2023-08-20T07:05:02;4.50;;;1.38;;
63818;SDS011;49970;54.976;73.248;2023-08-20T07:07:30;6.30;;;1.35;;
63818;SDS011;49970;54.976;73.248;2023-08-20T07:09:56;5.03;;;1.75;;
63818;SDS011;49970;54.976;73.248;2023-08-20T07:13:47;4.60;;;1.92;;
63818;SDS011;49970;54.976;73.248;2023-08-20T07:16:13;4.13;;;2.38;;
63818;SDS011;49970;54.976;73.248;2023-08-20T07:18:40;12.23;;;2.33;;
63818;SDS011;49970;54.976;73.248;2023-08-20T07:21:06;3.40;;;2.00;;
63818;SDS011;49970;54.976;73.248;2023-08-20T07:23:33;7.40;;;1.70;;
63818;SDS011;49970;54.976;73.248;2023-08-20T07:26:10;6.72;;;1.17;;
63818;SDS011;49970;54.976;73.248;2023-08-20T07:28:37;1.25;;;1.13;;
63818;SDS011;49970;54.976;73.248;2023-08-20T07:31:22;5.95;;;1.63;;
63818;SDS011;49970;54.976;73.248;2023-08-20T07:33:49;3.20;;;1.55;;
63818;SDS011;49970;54.976;73.248;2023-08-20T07:36:16;4.97;;;1.55;;
63818;SDS011;49970;54.976;73.248;2023-08-20T07:38:43;3.05;;;1.58;;
63818;SDS011;49970;54.976;73.248;2023-08-20T07:41:10;4.65;;;1.60;;
63818;SDS011;49970;54.976;73.248;2023-08-20T07:43:37;5.65;;;1.90;;
63818;SDS011;49970;54.976;73.248;2023-08-20T07:46:04;29.25;;;2.50;;
63818;SDS011;49970;54.976;73.248;2023-08-20T07:48:31;19.30;;;2.97;;
63818;SDS011;49970;54.976;73.248;2023-08-20T07:50:58;6.30;;;1.60;;
63818;SDS011;49970;54.976;73.248;2023-08-20T07:53:24;1.90;;;1.40;;
63818;SDS011;49970;54.976;73.248;2023-08-20T07:55:50;5.60;;;1.65;;
63818;SDS011;49970;54.976;73.248;2023-08-20T07:58:16;19.63;;;2.92;;
63818;SDS011;49970;54.976;73.248;2023-08-20T08:02:07;28.13;;;3.92;;
63818;SDS011;49970;54.976;73.248;2023-08-20T08:04:34;22.52;;;3.90;;
63818;SDS011;49970;54.976;73.248;2023-08-20T08:07:02;50.30;;;6.30;;
63818;SDS011;49970;54.976;73.248;2023-08-20T08:09:29;25.33;;;3.97;;
63818;SDS011;49970;54.976;73.248;2023-08-20T08:11:56;19.48;;;2.60;;
63818;SDS011;49970;54.976;73.248;2023-08-20T08:14:23;15.75;;;2.95;;
63818;SDS011;49970;54.976;73.248;2023-08-20T08:16:51;6.25;;;1.80;;
63818;SDS011;49970;54.976;73.248;2023-08-20T08:19:17;3.50;;;2.15;;
63818;SDS011;49970;54.976;73.248;2023-08-20T08:21:44;1.80;;;1.67;;
63818;SDS011;49970;54.976;73.248;2023-08-20T08:24:11;9.32;;;1.40;;
63818;SDS011;49970;54.976;73.248;2023-08-20T08:26:38;8.77;;;5.13;;
63818;SDS011;49970;54.976;73.248;2023-08-20T08:29:06;3.10;;;1.30;;
63818;SDS011;49970;54.976;73.248;2023-08-20T08:31:33;3.05;;;1.17;;
63818;SDS011;49970;54.976;73.248;2023-08-20T08:34:01;16.00;;;3.35;;
63818;SDS011;49970;54.976;73.248;2023-08-20T08:36:28;53.28;;;5.80;;
63818;SDS011;49970;54.976;73.248;2023-08-20T08:38:54;28.27;;;3.00;;
63818;SDS011;49970;54.976;73.248;2023-08-20T08:41:21;2.63;;;1.48;;
63818;SDS011;49970;54.976;73.248;2023-08-20T08:43:51;8.73;;;2.10;;
63818;SDS011;49970;54.976;73.248;2023-08-20T08:46:19;3.58;;;1.20;;
63818;SDS011;49970;54.976;73.248;2023-08-20T08:48:46;7.13;;;1.40;;
63818;SDS011;49970;54.976;73.248;2023-08-20T08:51:13;1.55;;;1.45;;
63818;SDS011;49970;54.976;73.248;2023-08-20T08:53:43;5.13;;;1.30;;
63818;SDS011;49970;54.976;73.248;2023-08-20T08:56:11;4.32;;;1.10;;
63818;SDS011;49970;54.976;73.248;2023-08-20T08:58:38;3.72;;;1.30;;
63818;SDS011;49970;54.976;73.248;2023-08-20T09:01:04;6.90;;;1.65;;
63818;SDS011;49970;54.976;73.248;2023-08-20T09:03:30;5.35;;;1.88;;
63818;SDS011;49970;54.976;73.248;2023-08-20T09:06:00;6.55;;;1.40;;
63818;SDS011;49970;54.976;73.248;2023-08-20T09:08:29;10.65;;;1.40;;
63818;SDS011;49970;54.976;73.248;2023-08-20T09:10:58;2.33;;;1.30;;
63818;SDS011;49970;54.976;73.248;2023-08-20T09:13:36;4.20;;;1.10;;
63818;SDS011;49970;54.976;73.248;2023-08-20T09:16:07;9.68;;;1.30;;
63818;SDS011;49970;54.976;73.248;2023-08-20T09:19:57;3.30;;;1.10;;
63818;SDS011;49970;54.976;73.248;2023-08-20T09:24:13;9.05;;;1.48;;
63818;SDS011;49970;54.976;73.248;2023-08-20T09:27:45;29.85;;;3.85;;
63818;SDS011;49970;54.976;73.248;2023-08-20T09:31:39;39.65;;;3.28;;
63818;SDS011;49970;54.976;73.248;2023-08-20T09:35:33;26.67;;;2.17;;
63818;SDS011;49970;54.976;73.248;2023-08-20T09:39:25;12.57;;;1.13;;
63818;SDS011;49970;54.976;73.248;2023-08-20T09:41:51;4.25;;;1.25;;
63818;SDS011;49970;54.976;73.248;2023-08-20T09:49:42;8.73;;;1.27;;
63818;SDS011;49970;54.976;73.248;2023-08-20T09:57:04;10.02;;;1.50;;
63818;SDS011;49970;54.976;73.248;2023-08-20T10:01:23;3.50;;;1.58;;
63818;SDS011;49970;54.976;73.248;2023-08-20T10:03:50;14.85;;;2.97;;
63818;SDS011;49970;54.976;73.248;2023-08-20T10:06:17;20.05;;;3.03;;
63818;SDS011;49970;54.976;73.248;2023-08-20T10:08:44;42.03;;;3.63;;
63818;SDS011;49970;54.976;73.248;2023-08-20T10:11:12;27.88;;;3.60;;
63818;SDS011;49970;54.976;73.248;2023-08-20T10:13:39;12.73;;;2.67;;
63818;SDS011;49970;54.976;73.248;2023-08-20T10:16:05;5.63;;;1.45;;
63818;SDS011;49970;54.976;73.248;2023-08-20T10:18:34;3.78;;;1.17;;
63818;SDS011;49970;54.976;73.248;2023-08-20T10:21:02;3.17;;;1.10;;
63818;SDS011;49970;54.976;73.248;2023-08-20T10:23:28;1.30;;;1.00;;
63818;SDS011;49970;54.976;73.248;2023-08-20T10:26:07;6.88;;;1.05;;
63818;SDS011;49970;54.976;73.248;2023-08-20T10:31:12;4.00;;;1.10;;
63818;SDS011;49970;54.976;73.248;2023-08-20T10:36:17;43.80;;;2.70;;
63818;SDS011;49970;54.976;73.248;2023-08-20T10:38:56;7.47;;;1.40;;
63818;SDS011;49970;54.976;73.248;2023-08-20T10:41:30;16.95;;;1.90;;
63818;SDS011;49970;54.976;73.248;2023-08-20T10:44:01;36.60;;;3.90;;
63818;SDS011;49970;54.976;73.248;2023-08-20T10:46:34;18.40;;;2.22;;
63818;SDS011;49970;54.976;73.248;2023-08-20T10:49:20;12.75;;;1.85;;
63818;SDS011;49970;54.976;73.248;2023-08-20T10:51:53;7.40;;;0.95;;
63818;SDS011;49970;54.976;73.248;2023-08-20T10:54:24;6.88;;;0.90;;
63818;SDS011;49970;54.976;73.248;2023-08-20T10:56:56;4.68;;;1.30;;
63818;SDS011;49970;54.976;73.248;2023-08-20T10:59:30;3.28;;;1.02;;
63818;SDS011;49970;54.976;73.248;2023-08-20T11:02:00;8.35;;;1.70;;
63818;SDS011;49970;54.976;73.248;2023-08-20T11:04:31;15.15;;;2.30;;
63818;SDS011;49970;54.976;73.248;2023-08-20T11:06:58;27.88;;;2.90;;
63818;SDS011;49970;54.976;73.248;2023-08-20T11:09:27;19.73;;;1.98;;
63818;SDS011;49970;54.976;73.248;2023-08-20T11:11:58;34.38;;;2.85;;
63818;SDS011;49970;54.976;73.248;2023-08-20T11:14:28;50.60;;;5.85;;
63818;SDS011;49970;54.976;73.248;2023-08-20T11:16:58;22.13;;;3.45;;
63818;SDS011;49970;54.976;73.248;2023-08-20T11:19:28;80.47;;;7.90;;
63818;SDS011;49970;54.976;73.248;2023-08-20T11:21:56;54.00;;;5.80;;
63818;SDS011;49970;54.976;73.248;2023-08-20T11:24:30;15.35;;;2.72;;
63818;SDS011;49970;54.976;73.248;2023-08-20T11:26:58;9.50;;;1.30;;
63818;SDS011;49970;54.976;73.248;2023-08-20T11:29:29;10.43;;;1.20;;
63818;SDS011;49970;54.976;73.248;2023-08-20T11:31:59;6.00;;;1.90;;
63818;SDS011;49970;54.976;73.248;2023-08-20T11:34:31;8.07;;;0.88;;
63818;SDS011;49970;54.976;73.248;2023-08-20T11:37:02;1.55;;;0.73;;
63818;SDS011;49970;54.976;73.248;2023-08-20T11:39:33;13.70;;;1.50;;
63818;SDS011;49970;54.976;73.248;2023-08-20T11:42:05;38.50;;;3.17;;
63818;SDS011;49970;54.976;73.248;2023-08-20T11:44:43;9.90;;;1.38;;
63818;SDS011;49970;54.976;73.248;2023-08-20T11:47:16;15.43;;;1.50;;
63818;SDS011;49970;54.976;73.248;2023-08-20T11:49:47;26.67;;;3.95;;
63818;SDS011;49970;54.976;73.248;2023-08-20T11:52:32;25.25;;;3.70;;
63818;SDS011;49970;54.976;73.248;2023-08-20T11:55:01;9.32;;;1.30;;
63818;SDS011;49970;54.976;73.248;2023-08-20T11:57:31;3.00;;;0.90;;
63818;SDS011;49970;54.976;73.248;2023-08-20T12:00:05;18.80;;;2.28;;
63818;SDS011;49970;54.976;73.248;2023-08-20T12:02:42;20.95;;;2.95;;
63818;SDS011;49970;54.976;73.248;2023-08-20T12:05:13;98.03;;;63.40;;
63818;SDS011;49970;54.976;73.248;2023-08-20T12:09:20;10.75;;;1.60;;
63818;SDS011;49970;54.976;73.248;2023-08-20T12:13:10;28.65;;;1.98;;
63818;SDS011;49970;54.976;73.248;2023-08-20T12:16:59;12.98;;;1.65;;
63818;SDS011;49970;54.976;73.248;2023-08-20T12:20:50;9.82;;;1.25;;
63818;SDS011;49970;54.976;73.248;2023-08-20T12:24:41;6.18;;;1.00;;
63818;SDS011;49970;54.976;73.248;2023-08-20T12:28:30;22.98;;;2.35;;
63818;SDS011;49970;54.976;73.248;2023-08-20T12:32:21;5.00;;;1.02;;
63818;SDS011;49970;54.976;73.248;2023-08-20T12:36:11;1.45;;;0.90;;
63818;SDS011;49970;54.976;73.248;2023-08-20T12:40:02;3.38;;;0.90;;
63818;SDS011;49970;54.976;73.248;2023-08-20T12:43:52;1.42;;;0.90;;
63818;SDS011;49970;54.976;73.248;2023-08-20T12:47:43;5.78;;;1.02;;
63818;SDS011;49970;54.976;73.248;2023-08-20T12:50:10;5.75;;;1.60;;
63818;SDS011;49970;54.976;73.248;2023-08-20T12:53:59;2.72;;;0.90;;
63818;SDS011;49970;54.976;73.248;2023-08-20T12:57:57;13.60;;;1.60;;
63818;SDS011;49970;54.976;73.248;2023-08-20T13:01:41;3.33;;;1.95;;
63818;SDS011;49970;54.976;73.248;2023-08-20T13:04:08;6.47;;;2.08;;
63818;SDS011;49970;54.976;73.248;2023-08-20T13:06:36;7.22;;;1.20;;
63818;SDS011;49970;54.976;73.248;2023-08-20T13:09:03;6.57;;;1.67;;
63818;SDS011;49970;54.976;73.248;2023-08-20T13:11:30;5.78;;;2.50;;
63818;SDS011;49970;54.976;73.248;2023-08-20T13:13:58;4.88;;;2.42;;
63818;SDS011;49970;54.976;73.248;2023-08-20T13:16:24;9.55;;;1.63;;
63818;SDS011;49970;54.976;73.248;2023-08-20T13:18:51;9.45;;;1.55;;
63818;SDS011;49970;54.976;73.248;2023-08-20T13:21:17;6.43;;;1.65;;
63818;SDS011;49970;54.976;73.248;2023-08-20T13:23:44;4.88;;;2.13;;
63818;SDS011;49970;54.976;73.248;2023-08-20T13:26:10;7.43;;;2.90;;
63818;SDS011;49970;54.976;73.248;2023-08-20T13:28:36;13.40;;;4.63;;
63818;SDS011;49970;54.976;73.248;2023-08-20T13:31:02;20.63;;;5.13;;
63818;SDS011;49970;54.976;73.248;2023-08-20T13:33:28;17.33;;;3.92;;
63818;SDS011;49970;54.976;73.248;2023-08-20T13:35:55;5.65;;;3.55;;
63818;SDS011;49970;54.976;73.248;2023-08-20T13:38:23;4.93;;;3.08;;
63818;SDS011;49970;54.976;73.248;2023-08-20T13:40:50;9.40;;;2.63;;
63818;SDS011;49970;54.976;73.248;2023-08-20T13:43:17;13.20;;;2.50;;
63818;SDS011;49970;54.976;73.248;2023-08-20T13:45:44;14.43;;;3.08;;
63818;SDS011;49970;54.976;73.248;2023-08-20T13:48:10;9.27;;;2.30;;
63818;SDS011;49970;54.976;73.248;2023-08-20T13:50:36;10.50;;;2.03;;
63818;SDS011;49970;54.976;73.248;2023-08-20T13:53:02;10.48;;;2.88;;
63818;SDS011;49970;54.976;73.248;2023-08-20T13:55:29;4.13;;;2.45;;
63818;SDS011;49970;54.976;73.248;2023-08-20T13:57:56;18.30;;;4.22;;
63818;SDS011;49970;54.976;73.248;2023-08-20T14:00:23;7.80;;;2.83;;
63818;SDS011;49970;54.976;73.248;2023-08-20T14:02:49;9.52;;;3.50;;
63818;SDS011;49970;54.976;73.248;2023-08-20T14:05:15;14.50;;;3.10;;
63818;SDS011;49970;54.976;73.248;2023-08-20T14:07:41;9.25;;;3.28;;
63818;SDS011;49970;54.976;73.248;2023-08-20T14:10:07;11.98;;;2.65;;
63818;SDS011;49970;54.976;73.248;2023-08-20T14:12:34;24.05;;;2.35;;
63818;SDS011;49970;54.976;73.248;2023-08-20T14:15:00;10.10;;;2.08;;
63818;SDS011;49970;54.976;73.248;2023-08-20T14:17:27;11.43;;;3.47;;
63818;SDS011;49970;54.976;73.248;2023-08-20T14:19:53;9.48;;;3.00;;
63818;SDS011;49970;54.976;73.248;2023-08-20T14:22:19;4.72;;;1.88;;
63818;SDS011;49970;54.976;73.248;2023-08-20T14:24:46;4.25;;;1.75;;
63818;SDS011;49970;54.976;73.248;2023-08-20T14:27:12;12.80;;;1.40;;
63818;SDS011;49970;54.976;73.248;2023-08-20T14:29:38;4.57;;;1.55;;
63818;SDS011;49970;54.976;73.248;2023-08-20T14:32:06;14.85;;;1.55;;
63818;SDS011;49970;54.976;73.248;2023-08-20T14:34:32;1.83;;;1.20;;
63818;SDS011;49970;54.976;73.248;2023-08-20T14:36:58;6.68;;;1.20;;
63818;SDS011;49970;54.976;73.248;2023-08-20T14:39:24;16.52;;;1.40;;
63818;SDS011;49970;54.976;73.248;2023-08-20T14:41:52;8.07;;;1.15;;
63818;SDS011;49970;54.976;73.248;2023-08-20T14:44:18;15.05;;;1.50;;
63818;SDS011;49970;54.976;73.248;2023-08-20T14:46:44;13.10;;;1.35;;
63818;SDS011;49970;54.976;73.248;2023-08-20T14:49:11;13.18;;;1.50;;
63818;SDS011;49970;54.976;73.248;2023-08-20T14:51:37;11.10;;;1.17;;
63818;SDS011;49970;54.976;73.248;2023-08-20T14:54:03;7.55;;;1.20;;
63818;SDS011;49970;54.976;73.248;2023-08-20T14:56:30;7.32;;;1.50;;
63818;SDS011;49970;54.976;73.248;2023-08-20T14:58:56;6.40;;;1.20;;
63818;SDS011;49970;54.976;73.248;2023-08-20T15:01:22;8.30;;;1.50;;
63818;SDS011;49970;54.976;73.248;2023-08-20T15:05:13;3.50;;;1.25;;
63818;SDS011;49970;54.976;73.248;2023-08-20T15:07:39;1.67;;;1.10;;
63818;SDS011;49970;54.976;73.248;2023-08-20T15:10:11;4.60;;;1.27;;
63818;SDS011;49970;54.976;73.248;2023-08-20T15:12:37;7.68;;;1.35;;
63818;SDS011;49970;54.976;73.248;2023-08-20T15:15:04;13.95;;;1.92;;
63818;SDS011;49970;54.976;73.248;2023-08-20T15:17:31;4.53;;;1.20;;
63818;SDS011;49970;54.976;73.248;2023-08-20T15:19:58;11.68;;;1.42;;
63818;SDS011;49970;54.976;73.248;2023-08-20T15:22:24;7.47;;;1.25;;
63818;SDS011;49970;54.976;73.248;2023-08-20T15:24:51;13.68;;;1.63;;
63818;SDS011;49970;54.976;73.248;2023-08-20T15:27:17;7.68;;;1.40;;
63818;SDS011;49970;54.976;73.248;2023-08-20T15:29:44;5.18;;;1.52;;
63818;SDS011;49970;54.976;73.248;2023-08-20T15:32:11;6.82;;;1.13;;